sensor_id;sensor_type;location;lat;lon;timestamp;temperature;humidity
65378;SHT31;51982;51.042;13.806;2022-07-29T00:00:50;20.56;52.88
65378;SHT31;51982;51.042;13.806;2022-07-29T00:03:16;20.59;53.05
65378;SHT31;51982;51.042;13.806;2022-07-29T00:05:41;20.59;53.12
65378;SHT31;51982;51.042;13.806;2022-07-29T00:08:08;20.56;53.20
65378;SHT31;51982;51.042;13.806;2022-07-29T00:10:34;20.55;53.28
65378;SHT31;51982;51.042;13.806;2022-07-29T00:12:59;20.48;53.49
65378;SHT31;51982;51.042;13.806;2022-07-29T00:15:25;20.45;53.71
65378;SHT31;51982;51.042;13.806;2022-07-29T00:17:50;20.39;53.92
65378;SHT31;51982;51.042;13.806;2022-07-29T00:20:16;20.45;53.89
65378;SHT31;51982;51.042;13.806;2022-07-29T00:22:41;20.40;54.03
65378;SHT31;51982;51.042;13.806;2022-07-29T00:25:07;20.38;54.01
65378;SHT31;51982;51.042;13.806;2022-07-29T00:27:34;20.36;54.17
65378;SHT31;51982;51.042;13.806;2022-07-29T00:29:59;20.26;54.55
65378;SHT31;51982;51.042;13.806;2022-07-29T00:32:24;20.18;54.77
65378;SHT31;51982;51.042;13.806;2022-07-29T00:34:50;20.11;54.94
65378;SHT31;51982;51.042;13.806;2022-07-29T00:37:33;20.02;55.23
65378;SHT31;51982;51.042;13.806;2022-07-29T00:39:59;20.01;55.16
65378;SHT31;51982;51.042;13.806;2022-07-29T00:42:24;19.98;55.23
65378;SHT31;51982;51.042;13.806;2022-07-29T00:44:49;19.97;55.34
65378;SHT31;51982;51.042;13.806;2022-07-29T00:47:14;19.97;55.37
65378;SHT31;51982;51.042;13.806;2022-07-29T00:49:41;19.94;55.52
65378;SHT31;51982;51.042;13.806;2022-07-29T00:52:09;19.94;55.59
65378;SHT31;51982;51.042;13.806;2022-07-29T00:54:35;19.92;55.57
65378;SHT31;51982;51.042;13.806;2022-07-29T00:57:01;19.97;55.58
65378;SHT31;51982;51.042;13.806;2022-07-29T00:59:27;20.01;55.59
65378;SHT31;51982;51.042;13.806;2022-07-29T01:01:53;19.92;55.79
65378;SHT31;51982;51.042;13.806;2022-07-29T01:04:19;19.82;56.05
65378;SHT31;51982;51.042;13.806;2022-07-29T01:06:45;19.81;56.03
65378;SHT31;51982;51.042;13.806;2022-07-29T01:09:10;19.84;56.10
65378;SHT31;51982;51.042;13.806;2022-07-29T01:11:36;19.82;56.19
65378;SHT31;51982;51.042;13.806;2022-07-29T01:14:02;19.82;56.17
65378;SHT31;51982;51.042;13.806;2022-07-29T01:16:31;19.82;56.19
65378;SHT31;51982;51.042;13.806;2022-07-29T01:19:07;19.75;56.39
65378;SHT31;51982;51.042;13.806;2022-07-29T01:21:51;19.64;56.93
65378;SHT31;51982;51.042;13.806;2022-07-29T01:24:30;19.70;56.45
65378;SHT31;51982;51.042;13.806;2022-07-29T01:27:04;19.56;56.82
65378;SHT31;51982;51.042;13.806;2022-07-29T01:29:54;19.61;57.58
65378;SHT31;51982;51.042;13.806;2022-07-29T01:32:23;19.53;56.89
65378;SHT31;51982;51.042;13.806;2022-07-29T01:35:22;19.43;57.63
65378;SHT31;51982;51.042;13.806;2022-07-29T01:37:57;19.38;57.07
65378;SHT31;51982;51.042;13.806;2022-07-29T01:40:30;19.34;57.51
65378;SHT31;51982;51.042;13.806;2022-07-29T01:43:04;19.40;57.39
65378;SHT31;51982;51.042;13.806;2022-07-29T01:45:38;19.36;57.70
65378;SHT31;51982;51.042;13.806;2022-07-29T01:50:59;19.36;57.67
65378;SHT31;51982;51.042;13.806;2022-07-29T01:53:33;19.34;57.85
65378;SHT31;51982;51.042;13.806;2022-07-29T01:56:00;19.33;57.67
65378;SHT31;51982;51.042;13.806;2022-07-29T01:58:28;19.36;57.68
65378;SHT31;51982;51.042;13.806;2022-07-29T02:00:56;19.34;57.86
65378;SHT31;51982;51.042;13.806;2022-07-29T02:03:22;19.36;57.79
65378;SHT31;51982;51.042;13.806;2022-07-29T02:05:50;19.30;58.02
65378;SHT31;51982;51.042;13.806;2022-07-29T02:08:16;19.28;58.16
65378;SHT31;51982;51.042;13.806;2022-07-29T02:10:44;19.28;58.18
65378;SHT31;51982;51.042;13.806;2022-07-29T02:13:11;19.23;58.27
65378;SHT31;51982;51.042;13.806;2022-07-29T02:15:38;19.13;58.53
65378;SHT31;51982;51.042;13.806;2022-07-29T02:18:24;19.09;58.61
65378;SHT31;51982;51.042;13.806;2022-07-29T02:20:52;19.15;58.53
65378;SHT31;51982;51.042;13.806;2022-07-29T02:23:20;19.10;58.61
65378;SHT31;51982;51.042;13.806;2022-07-29T02:25:49;19.12;58.67
65378;SHT31;51982;51.042;13.806;2022-07-29T02:28:19;19.10;58.80
65378;SHT31;51982;51.042;13.806;2022-07-29T02:30:46;19.12;58.72
65378;SHT31;51982;51.042;13.806;2022-07-29T02:33:14;19.09;58.78
65378;SHT31;51982;51.042;13.806;2022-07-29T02:35:41;19.12;58.76
65378;SHT31;51982;51.042;13.806;2022-07-29T02:38:09;19.02;58.99
65378;SHT31;51982;51.042;13.806;2022-07-29T02:40:57;18.98;59.12
65378;SHT31;51982;51.042;13.806;2022-07-29T02:43:24;18.95;59.20
65378;SHT31;51982;51.042;13.806;2022-07-29T02:45:52;18.91;59.25
65378;SHT31;51982;51.042;13.806;2022-07-29T02:48:22;18.85;59.37
65378;SHT31;51982;51.042;13.806;2022-07-29T02:50:59;18.81;59.42
65378;SHT31;51982;51.042;13.806;2022-07-29T02:53:26;18.77;59.43
65378;SHT31;51982;51.042;13.806;2022-07-29T02:55:57;18.75;59.48
65378;SHT31;51982;51.042;13.806;2022-07-29T02:58:30;18.81;59.28
65378;SHT31;51982;51.042;13.806;2022-07-29T03:00:59;18.81;59.19
65378;SHT31;51982;51.042;13.806;2022-07-29T03:03:29;18.84;59.16
65378;SHT31;51982;51.042;13.806;2022-07-29T03:05:56;18.86;59.24
65378;SHT31;51982;51.042;13.806;2022-07-29T03:08:22;18.82;59.40
65378;SHT31;51982;51.042;13.806;2022-07-29T03:10:48;18.86;59.37
65378;SHT31;51982;51.042;13.806;2022-07-29T03:13:14;18.84;59.57
65378;SHT31;51982;51.042;13.806;2022-07-29T03:15:39;18.79;59.71
65378;SHT31;51982;51.042;13.806;2022-07-29T03:18:07;18.82;59.76
65378;SHT31;51982;51.042;13.806;2022-07-29T03:20:33;18.82;59.89
65378;SHT31;51982;51.042;13.806;2022-07-29T03:22:58;18.76;60.05
65378;SHT31;51982;51.042;13.806;2022-07-29T03:25:23;18.81;59.95
65378;SHT31;51982;51.042;13.806;2022-07-29T03:27:49;18.75;60.07
65378;SHT31;51982;51.042;13.806;2022-07-29T03:30:14;18.71;60.13
65378;SHT31;51982;51.042;13.806;2022-07-29T03:32:41;18.68;60.26
65378;SHT31;51982;51.042;13.806;2022-07-29T03:35:07;18.64;60.31
65378;SHT31;51982;51.042;13.806;2022-07-29T03:37:32;18.59;60.29
65378;SHT31;51982;51.042;13.806;2022-07-29T03:40:00;18.62;60.32
65378;SHT31;51982;51.042;13.806;2022-07-29T03:42:31;18.69;60.13
65378;SHT31;51982;51.042;13.806;2022-07-29T03:44:58;18.76;60.03
65378;SHT31;51982;51.042;13.806;2022-07-29T03:47:27;18.73;60.18
65378;SHT31;51982;51.042;13.806;2022-07-29T03:49:56;18.72;60.29
65378;SHT31;51982;51.042;13.806;2022-07-29T03:52:24;18.76;60.31
65378;SHT31;51982;51.042;13.806;2022-07-29T03:54:50;18.64;60.53
65378;SHT31;51982;51.042;13.806;2022-07-29T03:57:20;18.58;60.60
65378;SHT31;51982;51.042;13.806;2022-07-29T03:59:47;18.61;60.67
65378;SHT31;51982;51.042;13.806;2022-07-29T04:02:13;18.62;60.55
65378;SHT31;51982;51.042;13.806;2022-07-29T04:04:38;18.64;60.56
65378;SHT31;51982;51.042;13.806;2022-07-29T04:07:04;18.68;60.45
65378;SHT31;51982;51.042;13.806;2022-07-29T04:09:29;18.71;60.52
65378;SHT31;51982;51.042;13.806;2022-07-29T04:11:55;18.65;60.62
65378;SHT31;51982;51.042;13.806;2022-07-29T04:14:20;18.62;60.74
65378;SHT31;51982;51.042;13.806;2022-07-29T04:16:46;18.68;60.71
65378;SHT31;51982;51.042;13.806;2022-07-29T04:19:11;18.73;60.64
65378;SHT31;51982;51.042;13.806;2022-07-29T04:21:38;18.79;60.60
65378;SHT31;51982;51.042;13.806;2022-07-29T04:24:03;18.85;60.55
65378;SHT31;51982;51.042;13.806;2022-07-29T04:26:29;18.81;60.78
65378;SHT31;51982;51.042;13.806;2022-07-29T04:28:54;18.72;61.01
65378;SHT31;51982;51.042;13.806;2022-07-29T04:31:19;18.76;60.96
65378;SHT31;51982;51.042;13.806;2022-07-29T04:33:44;18.82;60.94
65378;SHT31;51982;51.042;13.806;2022-07-29T04:36:09;18.82;61.03
65378;SHT31;51982;51.042;13.806;2022-07-29T04:38:36;18.93;60.77
65378;SHT31;51982;51.042;13.806;2022-07-29T04:41:01;18.89;60.85
65378;SHT31;51982;51.042;13.806;2022-07-29T04:43:27;18.88;60.95
65378;SHT31;51982;51.042;13.806;2022-07-29T04:45:52;18.93;60.92
65378;SHT31;51982;51.042;13.806;2022-07-29T04:48:17;19.06;60.70
65378;SHT31;51982;51.042;13.806;2022-07-29T04:50:42;19.10;60.68
65378;SHT31;51982;51.042;13.806;2022-07-29T04:53:09;19.12;60.62
65378;SHT31;51982;51.042;13.806;2022-07-29T04:55:34;19.16;60.48
65378;SHT31;51982;51.042;13.806;2022-07-29T04:57:59;19.27;60.23
65378;SHT31;51982;51.042;13.806;2022-07-29T05:00:25;19.41;59.98
65378;SHT31;51982;51.042;13.806;2022-07-29T05:02:50;19.50;59.81
65378;SHT31;51982;51.042;13.806;2022-07-29T05:05:15;19.56;59.68
65378;SHT31;51982;51.042;13.806;2022-07-29T05:07:41;19.68;59.60
65378;SHT31;51982;51.042;13.806;2022-07-29T05:10:07;19.77;59.44
65378;SHT31;51982;51.042;13.806;2022-07-29T05:12:33;20.65;57.79
65378;SHT31;51982;51.042;13.806;2022-07-29T05:14:59;21.27;56.23
65378;SHT31;51982;51.042;13.806;2022-07-29T05:17:24;20.77;57.35
65378;SHT31;51982;51.042;13.806;2022-07-29T05:19:49;20.59;57.90
65378;SHT31;51982;51.042;13.806;2022-07-29T05:22:17;20.49;58.00
65378;SHT31;51982;51.042;13.806;2022-07-29T05:24:42;20.39;58.44
65378;SHT31;51982;51.042;13.806;2022-07-29T05:27:08;20.29;58.63
65378;SHT31;51982;51.042;13.806;2022-07-29T05:29:33;20.24;58.68
65378;SHT31;51982;51.042;13.806;2022-07-29T05:31:58;20.21;58.88
65378;SHT31;51982;51.042;13.806;2022-07-29T05:34:23;20.21;58.80
65378;SHT31;51982;51.042;13.806;2022-07-29T05:36:50;20.35;58.62
65378;SHT31;51982;51.042;13.806;2022-07-29T05:39:15;20.45;58.43
65378;SHT31;51982;51.042;13.806;2022-07-29T05:41:41;20.45;58.31
65378;SHT31;51982;51.042;13.806;2022-07-29T05:44:08;20.32;58.53
65378;SHT31;51982;51.042;13.806;2022-07-29T05:46:34;20.28;58.62
65378;SHT31;51982;51.042;13.806;2022-07-29T05:48:59;20.33;58.67
65378;SHT31;51982;51.042;13.806;2022-07-29T05:51:24;20.33;58.62
65378;SHT31;51982;51.042;13.806;2022-07-29T05:53:49;20.40;58.48
65378;SHT31;51982;51.042;13.806;2022-07-29T05:56:15;20.43;58.36
65378;SHT31;51982;51.042;13.806;2022-07-29T05:58:40;20.50;58.34
65378;SHT31;51982;51.042;13.806;2022-07-29T06:01:06;20.60;58.23
65378;SHT31;51982;51.042;13.806;2022-07-29T06:03:31;20.65;58.19
65378;SHT31;51982;51.042;13.806;2022-07-29T06:05:56;20.69;57.91
65378;SHT31;51982;51.042;13.806;2022-07-29T06:08:21;20.82;57.73
65378;SHT31;51982;51.042;13.806;2022-07-29T06:10:47;20.90;57.61
65378;SHT31;51982;51.042;13.806;2022-07-29T06:13:12;20.92;57.52
65378;SHT31;51982;51.042;13.806;2022-07-29T06:15:38;20.94;57.36
65378;SHT31;51982;51.042;13.806;2022-07-29T06:18:03;21.03;57.26
65378;SHT31;51982;51.042;13.806;2022-07-29T06:20:29;21.10;57.23
65378;SHT31;51982;51.042;13.806;2022-07-29T06:22:55;21.15;57.15
65378;SHT31;51982;51.042;13.806;2022-07-29T06:25:20;21.26;57.17
65378;SHT31;51982;51.042;13.806;2022-07-29T06:27:46;21.27;56.95
65378;SHT31;51982;51.042;13.806;2022-07-29T06:30:11;21.30;56.83
65378;SHT31;51982;51.042;13.806;2022-07-29T06:32:37;21.38;56.80
65378;SHT31;51982;51.042;13.806;2022-07-29T06:35:02;21.50;56.70
65378;SHT31;51982;51.042;13.806;2022-07-29T06:37:28;21.57;56.58
65378;SHT31;51982;51.042;13.806;2022-07-29T06:39:53;21.64;56.58
65378;SHT31;51982;51.042;13.806;2022-07-29T06:42:42;21.62;56.61
65378;SHT31;51982;51.042;13.806;2022-07-29T06:45:08;21.68;56.59
65378;SHT31;51982;51.042;13.806;2022-07-29T06:47:33;21.72;56.55
65378;SHT31;51982;51.042;13.806;2022-07-29T06:49:59;21.82;56.44
65378;SHT31;51982;51.042;13.806;2022-07-29T06:52:24;21.89;56.32
65378;SHT31;51982;51.042;13.806;2022-07-29T06:54:50;22.02;56.17
65378;SHT31;51982;51.042;13.806;2022-07-29T06:57:15;22.16;56.02
65378;SHT31;51982;51.042;13.806;2022-07-29T06:59:40;22.35;55.74
65378;SHT31;51982;51.042;13.806;2022-07-29T07:02:06;22.46;55.59
65378;SHT31;51982;51.042;13.806;2022-07-29T07:04:31;22.57;55.41
65378;SHT31;51982;51.042;13.806;2022-07-29T07:06:57;22.66;55.07
65378;SHT31;51982;51.042;13.806;2022-07-29T07:09:22;22.78;54.76
65378;SHT31;51982;51.042;13.806;2022-07-29T07:11:48;22.98;54.34
65378;SHT31;51982;51.042;13.806;2022-07-29T07:14:13;23.25;53.92
65378;SHT31;51982;51.042;13.806;2022-07-29T07:16:38;23.78;52.98
65378;SHT31;51982;51.042;13.806;2022-07-29T07:19:03;23.66;53.11
65378;SHT31;51982;51.042;13.806;2022-07-29T07:21:29;23.59;53.38
65378;SHT31;51982;51.042;13.806;2022-07-29T07:23:54;23.80;52.97
65378;SHT31;51982;51.042;13.806;2022-07-29T07:26:19;23.78;53.21
65378;SHT31;51982;51.042;13.806;2022-07-29T07:28:45;23.72;53.28
65378;SHT31;51982;51.042;13.806;2022-07-29T07:31:11;23.62;53.40
65378;SHT31;51982;51.042;13.806;2022-07-29T07:33:36;23.57;53.65
65378;SHT31;51982;51.042;13.806;2022-07-29T07:36:04;23.65;53.55
65378;SHT31;51982;51.042;13.806;2022-07-29T07:38:30;23.78;53.57
65378;SHT31;51982;51.042;13.806;2022-07-29T07:40:55;23.79;53.44
65378;SHT31;51982;51.042;13.806;2022-07-29T07:43:20;23.78;53.42
65378;SHT31;51982;51.042;13.806;2022-07-29T07:45:46;23.82;53.36
65378;SHT31;51982;51.042;13.806;2022-07-29T07:48:12;23.96;53.28
65378;SHT31;51982;51.042;13.806;2022-07-29T07:50:37;24.14;53.05
65378;SHT31;51982;51.042;13.806;2022-07-29T07:53:02;24.31;52.69
65378;SHT31;51982;51.042;13.806;2022-07-29T07:55:27;24.46;52.44
65378;SHT31;51982;51.042;13.806;2022-07-29T07:57:54;24.44;52.37
65378;SHT31;51982;51.042;13.806;2022-07-29T08:00:20;24.41;52.39
65378;SHT31;51982;51.042;13.806;2022-07-29T08:02:46;24.51;52.26
65378;SHT31;51982;51.042;13.806;2022-07-29T08:05:11;24.67;52.23
65378;SHT31;51982;51.042;13.806;2022-07-29T08:07:40;24.78;52.17
65378;SHT31;51982;51.042;13.806;2022-07-29T08:10:06;24.88;52.04
65378;SHT31;51982;51.042;13.806;2022-07-29T08:12:32;24.82;51.93
65378;SHT31;51982;51.042;13.806;2022-07-29T08:14:57;24.96;51.71
65378;SHT31;51982;51.042;13.806;2022-07-29T08:17:22;25.25;51.34
65378;SHT31;51982;51.042;13.806;2022-07-29T08:19:48;25.36;50.98
65378;SHT31;51982;51.042;13.806;2022-07-29T08:22:13;25.56;50.77
65378;SHT31;51982;51.042;13.806;2022-07-29T08:24:39;25.73;50.61
65378;SHT31;51982;51.042;13.806;2022-07-29T08:27:33;25.79;50.73
65378;SHT31;51982;51.042;13.806;2022-07-29T08:29:58;25.92;50.87
65378;SHT31;51982;51.042;13.806;2022-07-29T08:32:24;25.98;50.73
65378;SHT31;51982;51.042;13.806;2022-07-29T08:34:49;26.07;50.56
65378;SHT31;51982;51.042;13.806;2022-07-29T08:37:14;26.14;50.48
65378;SHT31;51982;51.042;13.806;2022-07-29T08:39:39;26.18;50.47
65378;SHT31;51982;51.042;13.806;2022-07-29T08:42:05;26.28;50.44
65378;SHT31;51982;51.042;13.806;2022-07-29T08:44:31;26.30;50.42
65378;SHT31;51982;51.042;13.806;2022-07-29T08:46:56;26.37;50.28
65378;SHT31;51982;51.042;13.806;2022-07-29T08:49:21;26.44;50.29
65378;SHT31;51982;51.042;13.806;2022-07-29T08:51:47;26.48;50.40
65378;SHT31;51982;51.042;13.806;2022-07-29T08:54:16;26.52;50.25
65378;SHT31;51982;51.042;13.806;2022-07-29T08:56:42;26.54;50.11
65378;SHT31;51982;51.042;13.806;2022-07-29T08:59:08;26.51;49.85
65378;SHT31;51982;51.042;13.806;2022-07-29T09:01:37;26.48;49.95
65378;SHT31;51982;51.042;13.806;2022-07-29T09:04:04;26.48;49.95
65378;SHT31;51982;51.042;13.806;2022-07-29T09:06:31;26.57;49.75
65378;SHT31;51982;51.042;13.806;2022-07-29T09:08:59;26.72;49.10
65378;SHT31;51982;51.042;13.806;2022-07-29T09:11:24;26.87;48.87
65378;SHT31;51982;51.042;13.806;2022-07-29T09:13:50;26.96;48.90
65378;SHT31;51982;51.042;13.806;2022-07-29T09:16:15;27.10;48.60
65378;SHT31;51982;51.042;13.806;2022-07-29T09:18:42;27.15;48.51
65378;SHT31;51982;51.042;13.806;2022-07-29T09:21:18;27.22;48.08
65378;SHT31;51982;51.042;13.806;2022-07-29T09:24:03;27.28;48.24
65378;SHT31;51982;51.042;13.806;2022-07-29T09:26:30;27.35;47.92
65378;SHT31;51982;51.042;13.806;2022-07-29T09:28:56;27.43;47.65
65378;SHT31;51982;51.042;13.806;2022-07-29T09:31:32;27.45;47.34
65378;SHT31;51982;51.042;13.806;2022-07-29T09:33:58;27.57;47.36
65378;SHT31;51982;51.042;13.806;2022-07-29T09:36:25;27.69;47.28
65378;SHT31;51982;51.042;13.806;2022-07-29T09:39:00;27.77;47.15
65378;SHT31;51982;51.042;13.806;2022-07-29T09:41:27;27.84;46.99
65378;SHT31;51982;51.042;13.806;2022-07-29T09:43:56;27.93;46.72
65378;SHT31;51982;51.042;13.806;2022-07-29T09:46:21;28.05;46.38
65378;SHT31;51982;51.042;13.806;2022-07-29T09:49:06;28.21;45.81
65378;SHT31;51982;51.042;13.806;2022-07-29T09:51:31;28.28;46.19
65378;SHT31;51982;51.042;13.806;2022-07-29T09:53:56;28.32;45.98
65378;SHT31;51982;51.042;13.806;2022-07-29T09:56:38;28.37;45.67
65378;SHT31;51982;51.042;13.806;2022-07-29T09:59:08;28.48;45.64
65378;SHT31;51982;51.042;13.806;2022-07-29T10:01:34;28.52;45.54
65378;SHT31;51982;51.042;13.806;2022-07-29T10:04:01;28.52;45.51
65378;SHT31;51982;51.042;13.806;2022-07-29T10:06:27;28.63;45.34
65378;SHT31;51982;51.042;13.806;2022-07-29T10:08:53;28.76;45.03
65378;SHT31;51982;51.042;13.806;2022-07-29T10:11:18;28.82;44.97
65378;SHT31;51982;51.042;13.806;2022-07-29T10:13:47;28.92;44.84
65378;SHT31;51982;51.042;13.806;2022-07-29T10:16:13;29.03;44.48
65378;SHT31;51982;51.042;13.806;2022-07-29T10:18:39;29.27;44.31
65378;SHT31;51982;51.042;13.806;2022-07-29T10:21:05;29.27;43.96
65378;SHT31;51982;51.042;13.806;2022-07-29T10:23:31;29.27;44.03
65378;SHT31;51982;51.042;13.806;2022-07-29T10:25:57;29.17;44.16
65378;SHT31;51982;51.042;13.806;2022-07-29T10:28:23;29.12;44.14
65378;SHT31;51982;51.042;13.806;2022-07-29T10:30:50;29.24;44.20
65378;SHT31;51982;51.042;13.806;2022-07-29T10:33:37;29.34;43.98
65378;SHT31;51982;51.042;13.806;2022-07-29T10:36:27;29.37;43.84
65378;SHT31;51982;51.042;13.806;2022-07-29T10:39:19;29.27;43.36
65378;SHT31;51982;51.042;13.806;2022-07-29T10:41:58;29.23;43.43
65378;SHT31;51982;51.042;13.806;2022-07-29T10:44:27;29.40;43.64
65378;SHT31;51982;51.042;13.806;2022-07-29T10:46:52;29.51;43.61
65378;SHT31;51982;51.042;13.806;2022-07-29T10:49:22;29.63;43.09
65378;SHT31;51982;51.042;13.806;2022-07-29T10:51:52;29.67;42.99
65378;SHT31;51982;51.042;13.806;2022-07-29T10:54:18;29.64;42.63
65378;SHT31;51982;51.042;13.806;2022-07-29T10:56:44;29.67;42.66
65378;SHT31;51982;51.042;13.806;2022-07-29T11:01:44;29.57;42.59
65378;SHT31;51982;51.042;13.806;2022-07-29T11:04:09;29.63;42.72
65378;SHT31;51982;51.042;13.806;2022-07-29T11:07:06;29.57;42.57
65378;SHT31;51982;51.042;13.806;2022-07-29T11:09:33;29.47;43.07
65378;SHT31;51982;51.042;13.806;2022-07-29T11:11:58;29.42;43.25
65378;SHT31;51982;51.042;13.806;2022-07-29T11:17:16;29.42;43.17
65378;SHT31;51982;51.042;13.806;2022-07-29T11:19:42;29.49;43.22
65378;SHT31;51982;51.042;13.806;2022-07-29T11:22:08;29.54;43.00
65378;SHT31;51982;51.042;13.806;2022-07-29T11:24:34;29.57;43.05
65378;SHT31;51982;51.042;13.806;2022-07-29T11:29:32;29.57;43.09
65378;SHT31;51982;51.042;13.806;2022-07-29T11:32:09;29.49;43.10
65378;SHT31;51982;51.042;13.806;2022-07-29T11:34:36;29.51;43.31
65378;SHT31;51982;51.042;13.806;2022-07-29T11:39:41;29.50;43.30
65378;SHT31;51982;51.042;13.806;2022-07-29T11:45:07;29.65;43.01
65378;SHT31;51982;51.042;13.806;2022-07-29T11:47:37;29.64;43.03
65378;SHT31;51982;51.042;13.806;2022-07-29T11:50:05;29.63;42.99
65378;SHT31;51982;51.042;13.806;2022-07-29T11:52:36;29.67;43.17
65378;SHT31;51982;51.042;13.806;2022-07-29T11:55:04;29.71;43.17
65378;SHT31;51982;51.042;13.806;2022-07-29T11:57:30;29.82;42.93
65378;SHT31;51982;51.042;13.806;2022-07-29T11:59:57;29.91;43.00
65378;SHT31;51982;51.042;13.806;2022-07-29T12:02:22;29.74;43.15
65378;SHT31;51982;51.042;13.806;2022-07-29T12:07:25;29.61;43.43
65378;SHT31;51982;51.042;13.806;2022-07-29T12:09:53;29.74;43.53
65378;SHT31;51982;51.042;13.806;2022-07-29T12:12:19;29.81;43.41
65378;SHT31;51982;51.042;13.806;2022-07-29T12:14:44;29.84;43.44
65378;SHT31;51982;51.042;13.806;2022-07-29T12:17:28;29.84;42.83
65378;SHT31;51982;51.042;13.806;2022-07-29T12:19:55;29.91;43.19
65378;SHT31;51982;51.042;13.806;2022-07-29T12:22:28;29.98;43.26
65378;SHT31;51982;51.042;13.806;2022-07-29T12:24:55;29.97;43.32
65378;SHT31;51982;51.042;13.806;2022-07-29T12:27:20;30.02;43.29
65378;SHT31;51982;51.042;13.806;2022-07-29T12:29:58;30.02;43.13
65378;SHT31;51982;51.042;13.806;2022-07-29T12:32:31;30.04;43.09
65378;SHT31;51982;51.042;13.806;2022-07-29T12:34:57;30.06;43.19
65378;SHT31;51982;51.042;13.806;2022-07-29T12:37:22;30.11;43.29
65378;SHT31;51982;51.042;13.806;2022-07-29T12:39:47;30.12;43.28
65378;SHT31;51982;51.042;13.806;2022-07-29T12:42:15;30.09;43.32
65378;SHT31;51982;51.042;13.806;2022-07-29T12:44:45;30.06;43.33
65378;SHT31;51982;51.042;13.806;2022-07-29T12:47:11;30.09;43.16
65378;SHT31;51982;51.042;13.806;2022-07-29T12:49:36;30.08;43.20
65378;SHT31;51982;51.042;13.806;2022-07-29T12:52:32;30.01;43.10
65378;SHT31;51982;51.042;13.806;2022-07-29T12:54:58;30.11;43.27
65378;SHT31;51982;51.042;13.806;2022-07-29T12:57:23;30.12;43.19
65378;SHT31;51982;51.042;13.806;2022-07-29T13:00:06;30.09;42.72
65378;SHT31;51982;51.042;13.806;2022-07-29T13:02:36;30.15;43.17
65378;SHT31;51982;51.042;13.806;2022-07-29T13:05:02;30.09;43.04
65378;SHT31;51982;51.042;13.806;2022-07-29T13:07:30;30.15;43.15
65378;SHT31;51982;51.042;13.806;2022-07-29T13:10:17;30.29;42.79
65378;SHT31;51982;51.042;13.806;2022-07-29T13:13:03;30.40;42.30
65378;SHT31;51982;51.042;13.806;2022-07-29T13:15:29;30.48;42.62
65378;SHT31;51982;51.042;13.806;2022-07-29T13:17:55;30.35;42.68
65378;SHT31;51982;51.042;13.806;2022-07-29T13:20:24;30.33;42.82
65378;SHT31;51982;51.042;13.806;2022-07-29T13:22:49;30.35;42.99
65378;SHT31;51982;51.042;13.806;2022-07-29T13:25:24;30.42;42.93
65378;SHT31;51982;51.042;13.806;2022-07-29T13:27:49;30.49;42.80
65378;SHT31;51982;51.042;13.806;2022-07-29T13:30:17;30.48;42.71
65378;SHT31;51982;51.042;13.806;2022-07-29T13:32:43;30.49;42.74
65378;SHT31;51982;51.042;13.806;2022-07-29T13:35:08;30.46;42.65
65378;SHT31;51982;51.042;13.806;2022-07-29T13:37:35;30.45;42.79
65378;SHT31;51982;51.042;13.806;2022-07-29T13:40:03;30.40;42.64
65378;SHT31;51982;51.042;13.806;2022-07-29T13:42:29;30.46;42.56
65378;SHT31;51982;51.042;13.806;2022-07-29T13:44:54;30.43;42.63
65378;SHT31;51982;51.042;13.806;2022-07-29T13:47:20;30.46;42.70
65378;SHT31;51982;51.042;13.806;2022-07-29T13:49:46;30.42;42.75
65378;SHT31;51982;51.042;13.806;2022-07-29T13:52:11;30.38;42.83
65378;SHT31;51982;51.042;13.806;2022-07-29T13:54:36;30.40;42.88
65378;SHT31;51982;51.042;13.806;2022-07-29T13:57:04;30.40;42.92
65378;SHT31;51982;51.042;13.806;2022-07-29T13:59:29;30.43;43.05
65378;SHT31;51982;51.042;13.806;2022-07-29T14:01:54;30.40;43.13
65378;SHT31;51982;51.042;13.806;2022-07-29T14:04:19;30.33;42.96
65378;SHT31;51982;51.042;13.806;2022-07-29T14:06:46;30.33;43.00
65378;SHT31;51982;51.042;13.806;2022-07-29T14:09:11;30.32;42.97
65378;SHT31;51982;51.042;13.806;2022-07-29T14:11:37;30.29;42.73
65378;SHT31;51982;51.042;13.806;2022-07-29T14:14:03;30.33;42.81
65378;SHT31;51982;51.042;13.806;2022-07-29T14:16:28;30.43;42.82
65378;SHT31;51982;51.042;13.806;2022-07-29T14:18:54;30.53;42.64
65378;SHT31;51982;51.042;13.806;2022-07-29T14:21:19;30.62;42.59
65378;SHT31;51982;51.042;13.806;2022-07-29T14:23:44;30.63;42.56
65378;SHT31;51982;51.042;13.806;2022-07-29T14:26:09;30.56;42.60
65378;SHT31;51982;51.042;13.806;2022-07-29T14:28:35;30.51;42.55
65378;SHT31;51982;51.042;13.806;2022-07-29T14:31:00;30.39;42.66
65378;SHT31;51982;51.042;13.806;2022-07-29T14:33:25;30.28;42.60
65378;SHT31;51982;51.042;13.806;2022-07-29T14:35:50;30.31;42.61
65378;SHT31;51982;51.042;13.806;2022-07-29T14:38:16;30.29;42.73
65378;SHT31;51982;51.042;13.806;2022-07-29T14:40:41;30.22;42.85
65378;SHT31;51982;51.042;13.806;2022-07-29T14:43:06;30.12;42.91
65378;SHT31;51982;51.042;13.806;2022-07-29T14:45:31;30.08;42.95
65378;SHT31;51982;51.042;13.806;2022-07-29T14:47:57;30.16;43.04
65378;SHT31;51982;51.042;13.806;2022-07-29T14:50:22;30.24;42.95
65378;SHT31;51982;51.042;13.806;2022-07-29T14:52:48;30.22;42.95
65378;SHT31;51982;51.042;13.806;2022-07-29T14:55:13;30.28;42.97
65378;SHT31;51982;51.042;13.806;2022-07-29T14:57:38;30.31;42.85
65378;SHT31;51982;51.042;13.806;2022-07-29T15:00:04;30.38;42.68
65378;SHT31;51982;51.042;13.806;2022-07-29T15:02:32;30.51;42.75
65378;SHT31;51982;51.042;13.806;2022-07-29T15:04:57;30.53;42.64
65378;SHT31;51982;51.042;13.806;2022-07-29T15:07:22;30.53;42.52
65378;SHT31;51982;51.042;13.806;2022-07-29T15:09:48;30.53;42.61
65378;SHT31;51982;51.042;13.806;2022-07-29T15:12:13;30.55;42.64
65378;SHT31;51982;51.042;13.806;2022-07-29T15:14:38;30.52;42.66
65378;SHT31;51982;51.042;13.806;2022-07-29T15:17:03;30.49;42.73
65378;SHT31;51982;51.042;13.806;2022-07-29T15:19:29;30.48;42.66
65378;SHT31;51982;51.042;13.806;2022-07-29T15:21:54;30.48;42.79
65378;SHT31;51982;51.042;13.806;2022-07-29T15:24:19;30.33;42.84
65378;SHT31;51982;51.042;13.806;2022-07-29T15:26:45;30.22;42.84
65378;SHT31;51982;51.042;13.806;2022-07-29T15:29:11;30.06;43.02
65378;SHT31;51982;51.042;13.806;2022-07-29T15:31:36;30.09;43.06
65378;SHT31;51982;51.042;13.806;2022-07-29T15:34:01;30.05;43.06
65378;SHT31;51982;51.042;13.806;2022-07-29T15:36:27;29.97;43.14